sensor_id;sensor_type;location;lat;lon;timestamp;P1;durP1;ratioP1;P2;durP2;ratioP2
21593;SDS011;10959;51.328;7.322;2023-11-21T00:00:36;15.13;;;12.80;;
21593;SDS011;10959;51.328;7.322;2023-11-21T00:03:04;20.53;;;15.53;;
21593;SDS011;10959;51.328;7.322;2023-11-21T00:05:31;15.70;;;12.40;;
21593;SDS011;10959;51.328;7.322;2023-11-21T00:07:58;17.80;;;13.50;;
21593;SDS011;10959;51.328;7.322;2023-11-21T00:10:24;15.70;;;14.00;;
21593;SDS011;10959;51.328;7.322;2023-11-21T00:12:51;17.63;;;13.57;;
21593;SDS011;10959;51.328;7.322;2023-11-21T00:15:20;21.23;;;15.30;;
21593;SDS011;10959;51.328;7.322;2023-11-21T00:17:46;18.20;;;13.00;;
21593;SDS011;10959;51.328;7.322;2023-11-21T00:20:14;19.23;;;14.30;;
21593;SDS011;10959;51.328;7.322;2023-11-21T00:22:41;15.20;;;13.43;;
21593;SDS011;10959;51.328;7.322;2023-11-21T00:25:08;15.67;;;13.03;;
21593;SDS011;10959;51.328;7.322;2023-11-21T00:27:35;16.47;;;13.20;;
21593;SDS011;10959;51.328;7.322;2023-11-21T00:30:00;14.50;;;12.47;;
21593;SDS011;10959;51.328;7.322;2023-11-21T00:32:29;14.07;;;12.07;;
21593;SDS011;10959;51.328;7.322;2023-11-21T00:34:55;14.67;;;11.93;;
21593;SDS011;10959;51.328;7.322;2023-11-21T00:37:23;14.83;;;13.23;;
21593;SDS011;10959;51.328;7.322;2023-11-21T00:39:50;13.57;;;12.10;;
21593;SDS011;10959;51.328;7.322;2023-11-21T00:42:16;16.33;;;13.17;;
21593;SDS011;10959;51.328;7.322;2023-11-21T00:44:43;15.07;;;13.50;;
21593;SDS011;10959;51.328;7.322;2023-11-21T00:47:09;16.20;;;12.70;;
21593;SDS011;10959;51.328;7.322;2023-11-21T00:49:35;14.57;;;12.03;;
21593;SDS011;10959;51.328;7.322;2023-11-21T00:52:04;13.70;;;11.43;;
21593;SDS011;10959;51.328;7.322;2023-11-21T00:54:32;18.10;;;13.27;;
21593;SDS011;10959;51.328;7.322;2023-11-21T00:56:59;15.93;;;12.23;;
21593;SDS011;10959;51.328;7.322;2023-11-21T00:59:25;17.13;;;13.73;;
21593;SDS011;10959;51.328;7.322;2023-11-21T01:01:52;16.43;;;13.33;;
21593;SDS011;10959;51.328;7.322;2023-11-21T01:04:19;16.60;;;12.80;;
21593;SDS011;10959;51.328;7.322;2023-11-21T01:06:45;14.93;;;12.37;;
21593;SDS011;10959;51.328;7.322;2023-11-21T01:09:12;13.93;;;11.97;;
21593;SDS011;10959;51.328;7.322;2023-11-21T01:11:40;14.20;;;12.27;;
21593;SDS011;10959;51.328;7.322;2023-11-21T01:14:08;15.33;;;12.83;;
21593;SDS011;10959;51.328;7.322;2023-11-21T01:16:35;15.37;;;12.23;;
21593;SDS011;10959;51.328;7.322;2023-11-21T01:19:02;11.10;;;9.93;;
21593;SDS011;10959;51.328;7.322;2023-11-21T01:21:29;13.70;;;11.83;;
21593;SDS011;10959;51.328;7.322;2023-11-21T01:23:56;15.63;;;11.37;;
21593;SDS011;10959;51.328;7.322;2023-11-21T01:26:22;12.87;;;11.57;;
21593;SDS011;10959;51.328;7.322;2023-11-21T01:28:50;12.10;;;10.90;;
21593;SDS011;10959;51.328;7.322;2023-11-21T01:31:17;12.93;;;10.70;;
21593;SDS011;10959;51.328;7.322;2023-11-21T01:33:44;12.53;;;11.23;;
21593;SDS011;10959;51.328;7.322;2023-11-21T01:36:11;12.40;;;11.10;;
21593;SDS011;10959;51.328;7.322;2023-11-21T01:38:37;14.63;;;12.70;;
21593;SDS011;10959;51.328;7.322;2023-11-21T01:41:04;13.70;;;12.27;;
21593;SDS011;10959;51.328;7.322;2023-11-21T01:43:31;15.43;;;13.70;;
21593;SDS011;10959;51.328;7.322;2023-11-21T01:45:59;14.17;;;11.33;;
21593;SDS011;10959;51.328;7.322;2023-11-21T01:48:26;15.90;;;11.63;;
21593;SDS011;10959;51.328;7.322;2023-11-21T01:50:53;13.20;;;11.37;;
21593;SDS011;10959;51.328;7.322;2023-11-21T01:53:20;12.83;;;11.33;;
21593;SDS011;10959;51.328;7.322;2023-11-21T01:55:46;15.00;;;11.70;;
21593;SDS011;10959;51.328;7.322;2023-11-21T01:58:14;13.97;;;12.30;;
21593;SDS011;10959;51.328;7.322;2023-11-21T02:00:41;16.87;;;13.93;;
21593;SDS011;10959;51.328;7.322;2023-11-21T02:03:09;17.53;;;13.97;;
21593;SDS011;10959;51.328;7.322;2023-11-21T02:05:37;14.00;;;12.10;;
21593;SDS011;10959;51.328;7.322;2023-11-21T02:08:03;14.93;;;12.80;;
21593;SDS011;10959;51.328;7.322;2023-11-21T02:10:30;16.73;;;14.10;;
21593;SDS011;10959;51.328;7.322;2023-11-21T02:12:58;14.73;;;12.67;;
21593;SDS011;10959;51.328;7.322;2023-11-21T02:15:27;16.33;;;14.23;;
21593;SDS011;10959;51.328;7.322;2023-11-21T02:17:54;19.07;;;14.33;;
21593;SDS011;10959;51.328;7.322;2023-11-21T02:20:24;17.63;;;13.47;;
21593;SDS011;10959;51.328;7.322;2023-11-21T02:22:53;16.97;;;14.03;;
21593;SDS011;10959;51.328;7.322;2023-11-21T02:25:23;20.67;;;14.07;;
21593;SDS011;10959;51.328;7.322;2023-11-21T02:27:49;18.27;;;15.17;;
21593;SDS011;10959;51.328;7.322;2023-11-21T02:30:16;16.63;;;14.03;;
21593;SDS011;10959;51.328;7.322;2023-11-21T02:32:43;14.97;;;12.30;;
21593;SDS011;10959;51.328;7.322;2023-11-21T02:35:11;14.17;;;12.67;;
21593;SDS011;10959;51.328;7.322;2023-11-21T02:37:38;16.93;;;13.80;;
21593;SDS011;10959;51.328;7.322;2023-11-21T02:40:08;17.73;;;13.33;;
21593;SDS011;10959;51.328;7.322;2023-11-21T02:42:37;17.80;;;13.30;;
21593;SDS011;10959;51.328;7.322;2023-11-21T02:45:04;14.23;;;12.47;;
21593;SDS011;10959;51.328;7.322;2023-11-21T02:47:32;14.43;;;12.37;;
21593;SDS011;10959;51.328;7.322;2023-11-21T02:49:58;15.77;;;13.30;;
21593;SDS011;10959;51.328;7.322;2023-11-21T02:52:25;14.47;;;12.27;;
21593;SDS011;10959;51.328;7.322;2023-11-21T02:54:52;15.97;;;12.47;;
21593;SDS011;10959;51.328;7.322;2023-11-21T02:57:19;14.97;;;12.37;;
21593;SDS011;10959;51.328;7.322;2023-11-21T02:59:46;15.30;;;12.77;;
21593;SDS011;10959;51.328;7.322;2023-11-21T03:02:12;14.30;;;12.80;;
21593;SDS011;10959;51.328;7.322;2023-11-21T03:04:40;14.73;;;13.23;;
21593;SDS011;10959;51.328;7.322;2023-11-21T03:07:07;18.03;;;13.80;;
21593;SDS011;10959;51.328;7.322;2023-11-21T03:09:34;16.83;;;13.70;;
21593;SDS011;10959;51.328;7.322;2023-11-21T03:12:01;17.27;;;13.70;;
21593;SDS011;10959;51.328;7.322;2023-11-21T03:14:29;17.90;;;14.37;;
21593;SDS011;10959;51.328;7.322;2023-11-21T03:16:55;17.63;;;13.70;;
21593;SDS011;10959;51.328;7.322;2023-11-21T03:19:22;21.73;;;14.53;;
21593;SDS011;10959;51.328;7.322;2023-11-21T03:21:48;17.83;;;14.33;;
21593;SDS011;10959;51.328;7.322;2023-11-21T03:24:15;15.23;;;12.70;;
21593;SDS011;10959;51.328;7.322;2023-11-21T03:26:44;16.10;;;13.13;;
21593;SDS011;10959;51.328;7.322;2023-11-21T03:29:10;17.60;;;13.30;;
21593;SDS011;10959;51.328;7.322;2023-11-21T03:31:38;16.27;;;13.43;;
21593;SDS011;10959;51.328;7.322;2023-11-21T03:34:04;17.40;;;14.87;;
21593;SDS011;10959;51.328;7.322;2023-11-21T03:36:31;18.90;;;14.77;;
21593;SDS011;10959;51.328;7.322;2023-11-21T03:38:57;16.03;;;13.43;;
21593;SDS011;10959;51.328;7.322;2023-11-21T03:41:24;17.73;;;13.87;;
21593;SDS011;10959;51.328;7.322;2023-11-21T03:43:50;18.40;;;13.87;;
21593;SDS011;10959;51.328;7.322;2023-11-21T03:46:17;16.03;;;13.17;;
21593;SDS011;10959;51.328;7.322;2023-11-21T03:48:45;18.43;;;13.47;;
21593;SDS011;10959;51.328;7.322;2023-11-21T03:51:11;15.77;;;12.57;;
21593;SDS011;10959;51.328;7.322;2023-11-21T03:53:38;16.03;;;12.83;;
21593;SDS011;10959;51.328;7.322;2023-11-21T03:56:04;13.57;;;11.80;;
21593;SDS011;10959;51.328;7.322;2023-11-21T03:58:31;13.07;;;11.10;;
21593;SDS011;10959;51.328;7.322;2023-11-21T04:00:58;15.47;;;12.47;;
21593;SDS011;10959;51.328;7.322;2023-11-21T04:03:24;15.17;;;12.87;;
21593;SDS011;10959;51.328;7.322;2023-11-21T04:05:52;15.53;;;13.53;;
21593;SDS011;10959;51.328;7.322;2023-11-21T04:08:19;17.37;;;12.53;;
21593;SDS011;10959;51.328;7.322;2023-11-21T04:10:45;16.50;;;12.07;;
21593;SDS011;10959;51.328;7.322;2023-11-21T04:13:12;15.87;;;12.83;;
21593;SDS011;10959;51.328;7.322;2023-11-21T04:15:38;16.43;;;13.40;;
21593;SDS011;10959;51.328;7.322;2023-11-21T04:18:05;16.23;;;12.83;;
21593;SDS011;10959;51.328;7.322;2023-11-21T04:20:31;17.13;;;12.37;;
21593;SDS011;10959;51.328;7.322;2023-11-21T04:22:59;16.13;;;12.50;;
21593;SDS011;10959;51.328;7.322;2023-11-21T04:25:26;15.80;;;12.83;;
21593;SDS011;10959;51.328;7.322;2023-11-21T04:27:53;20.67;;;13.87;;
21593;SDS011;10959;51.328;7.322;2023-11-21T04:30:19;15.70;;;12.00;;
21593;SDS011;10959;51.328;7.322;2023-11-21T04:32:46;12.17;;;10.50;;
21593;SDS011;10959;51.328;7.322;2023-11-21T04:35:12;30.70;;;17.50;;
21593;SDS011;10959;51.328;7.322;2023-11-21T04:37:40;22.87;;;14.97;;
21593;SDS011;10959;51.328;7.322;2023-11-21T04:40:08;32.60;;;19.13;;
21593;SDS011;10959;51.328;7.322;2023-11-21T04:42:36;24.00;;;16.37;;
21593;SDS011;10959;51.328;7.322;2023-11-21T04:45:02;18.73;;;14.60;;
21593;SDS011;10959;51.328;7.322;2023-11-21T04:47:32;18.73;;;15.43;;
21593;SDS011;10959;51.328;7.322;2023-11-21T04:49:59;20.03;;;14.77;;
21593;SDS011;10959;51.328;7.322;2023-11-21T04:52:25;20.87;;;13.73;;
21593;SDS011;10959;51.328;7.322;2023-11-21T04:54:52;19.30;;;13.57;;
21593;SDS011;10959;51.328;7.322;2023-11-21T04:57:20;15.97;;;12.97;;
21593;SDS011;10959;51.328;7.322;2023-11-21T04:59:47;17.27;;;12.73;;
21593;SDS011;10959;51.328;7.322;2023-11-21T05:02:14;15.50;;;12.43;;
21593;SDS011;10959;51.328;7.322;2023-11-21T05:04:40;15.60;;;13.40;;
21593;SDS011;10959;51.328;7.322;2023-11-21T05:07:07;17.33;;;13.30;;
21593;SDS011;10959;51.328;7.322;2023-11-21T05:09:34;15.47;;;12.17;;
21593;SDS011;10959;51.328;7.322;2023-11-21T05:12:01;17.97;;;12.50;;
21593;SDS011;10959;51.328;7.322;2023-11-21T05:14:30;14.97;;;12.90;;
21593;SDS011;10959;51.328;7.322;2023-11-21T05:16:56;13.60;;;11.40;;
21593;SDS011;10959;51.328;7.322;2023-11-21T05:19:24;24.90;;;17.50;;
21593;SDS011;10959;51.328;7.322;2023-11-21T05:21:52;21.10;;;15.47;;
21593;SDS011;10959;51.328;7.322;2023-11-21T05:24:18;16.47;;;13.30;;
21593;SDS011;10959;51.328;7.322;2023-11-21T05:26:44;18.37;;;14.23;;
21593;SDS011;10959;51.328;7.322;2023-11-21T05:29:11;18.03;;;13.20;;
21593;SDS011;10959;51.328;7.322;2023-11-21T05:31:39;16.67;;;13.50;;
21593;SDS011;10959;51.328;7.322;2023-11-21T05:34:05;18.93;;;13.70;;
21593;SDS011;10959;51.328;7.322;2023-11-21T05:36:32;14.23;;;11.80;;
21593;SDS011;10959;51.328;7.322;2023-11-21T05:38:58;17.43;;;12.53;;
21593;SDS011;10959;51.328;7.322;2023-11-21T05:41:25;17.57;;;12.37;;
21593;SDS011;10959;51.328;7.322;2023-11-21T05:43:51;17.30;;;14.10;;
21593;SDS011;10959;51.328;7.322;2023-11-21T05:46:19;17.67;;;12.97;;
21593;SDS011;10959;51.328;7.322;2023-11-21T05:48:47;18.30;;;13.73;;
21593;SDS011;10959;51.328;7.322;2023-11-21T05:51:13;17.20;;;14.63;;
21593;SDS011;10959;51.328;7.322;2023-11-21T05:53:40;19.13;;;13.80;;
21593;SDS011;10959;51.328;7.322;2023-11-21T05:56:06;17.27;;;13.90;;
21593;SDS011;10959;51.328;7.322;2023-11-21T05:58:33;19.73;;;14.10;;
21593;SDS011;10959;51.328;7.322;2023-11-21T06:01:00;19.60;;;14.10;;
21593;SDS011;10959;51.328;7.322;2023-11-21T06:03:26;13.90;;;11.70;;
21593;SDS011;10959;51.328;7.322;2023-11-21T06:05:54;19.53;;;15.03;;
21593;SDS011;10959;51.328;7.322;2023-11-21T06:08:20;17.80;;;14.07;;
21593;SDS011;10959;51.328;7.322;2023-11-21T06:10:47;18.80;;;13.70;;
21593;SDS011;10959;51.328;7.322;2023-11-21T06:13:14;17.50;;;13.67;;
21593;SDS011;10959;51.328;7.322;2023-11-21T06:15:41;19.13;;;14.93;;
21593;SDS011;10959;51.328;7.322;2023-11-21T06:18:07;18.63;;;14.10;;
21593;SDS011;10959;51.328;7.322;2023-11-21T06:20:35;19.87;;;16.30;;
21593;SDS011;10959;51.328;7.322;2023-11-21T06:23:03;20.43;;;15.43;;
21593;SDS011;10959;51.328;7.322;2023-11-21T06:25:30;17.37;;;13.97;;
21593;SDS011;10959;51.328;7.322;2023-11-21T06:27:58;19.90;;;14.60;;
21593;SDS011;10959;51.328;7.322;2023-11-21T06:30:24;22.77;;;14.80;;
21593;SDS011;10959;51.328;7.322;2023-11-21T06:32:51;17.57;;;12.93;;
21593;SDS011;10959;51.328;7.322;2023-11-21T06:35:18;18.37;;;14.57;;
21593;SDS011;10959;51.328;7.322;2023-11-21T06:37:45;19.93;;;13.17;;
21593;SDS011;10959;51.328;7.322;2023-11-21T06:40:14;18.73;;;13.70;;
21593;SDS011;10959;51.328;7.322;2023-11-21T06:42:41;19.57;;;14.13;;
21593;SDS011;10959;51.328;7.322;2023-11-21T06:45:09;19.50;;;13.97;;
21593;SDS011;10959;51.328;7.322;2023-11-21T06:47:36;13.90;;;11.30;;
21593;SDS011;10959;51.328;7.322;2023-11-21T06:50:03;17.33;;;13.17;;
21593;SDS011;10959;51.328;7.322;2023-11-21T06:52:30;15.73;;;12.77;;
21593;SDS011;10959;51.328;7.322;2023-11-21T06:54:56;14.73;;;12.00;;
21593;SDS011;10959;51.328;7.322;2023-11-21T06:57:24;17.93;;;13.00;;
21593;SDS011;10959;51.328;7.322;2023-11-21T06:59:51;15.13;;;13.20;;
21593;SDS011;10959;51.328;7.322;2023-11-21T07:02:17;19.97;;;14.50;;
21593;SDS011;10959;51.328;7.322;2023-11-21T07:04:44;21.17;;;15.27;;
21593;SDS011;10959;51.328;7.322;2023-11-21T07:07:11;19.33;;;14.93;;
21593;SDS011;10959;51.328;7.322;2023-11-21T07:09:38;19.43;;;15.40;;
21593;SDS011;10959;51.328;7.322;2023-11-21T07:12:05;20.97;;;15.53;;
21593;SDS011;10959;51.328;7.322;2023-11-21T07:14:34;16.60;;;13.33;;
21593;SDS011;10959;51.328;7.322;2023-11-21T07:17:00;18.63;;;14.50;;
21593;SDS011;10959;51.328;7.322;2023-11-21T07:19:27;18.90;;;13.73;;
21593;SDS011;10959;51.328;7.322;2023-11-21T07:21:54;20.40;;;14.57;;
21593;SDS011;10959;51.328;7.322;2023-11-21T07:24:20;19.20;;;15.07;;
21593;SDS011;10959;51.328;7.322;2023-11-21T07:26:47;20.37;;;15.60;;
21593;SDS011;10959;51.328;7.322;2023-11-21T07:29:14;21.37;;;15.63;;
21593;SDS011;10959;51.328;7.322;2023-11-21T07:31:42;22.40;;;14.43;;
21593;SDS011;10959;51.328;7.322;2023-11-21T07:34:08;25.13;;;17.73;;
21593;SDS011;10959;51.328;7.322;2023-11-21T07:36:37;26.50;;;17.93;;
21593;SDS011;10959;51.328;7.322;2023-11-21T07:39:03;23.90;;;16.50;;
21593;SDS011;10959;51.328;7.322;2023-11-21T07:41:31;21.23;;;15.87;;
21593;SDS011;10959;51.328;7.322;2023-11-21T07:43:58;20.07;;;16.03;;
21593;SDS011;10959;51.328;7.322;2023-11-21T07:46:24;24.13;;;16.80;;
21593;SDS011;10959;51.328;7.322;2023-11-21T07:48:53;23.07;;;16.00;;
21593;SDS011;10959;51.328;7.322;2023-11-21T07:51:20;20.57;;;13.13;;
21593;SDS011;10959;51.328;7.322;2023-11-21T07:53:47;19.37;;;14.53;;
21593;SDS011;10959;51.328;7.322;2023-11-21T07:56:13;19.60;;;15.13;;
21593;SDS011;10959;51.328;7.322;2023-11-21T07:58:40;24.70;;;15.93;;
21593;SDS011;10959;51.328;7.322;2023-11-21T08:01:06;18.40;;;15.20;;
21593;SDS011;10959;51.328;7.322;2023-11-21T08:03:33;18.17;;;14.63;;
21593;SDS011;10959;51.328;7.322;2023-11-21T08:06:00;20.20;;;15.00;;
21593;SDS011;10959;51.328;7.322;2023-11-21T08:08:28;20.47;;;15.23;;
21593;SDS011;10959;51.328;7.322;2023-11-21T08:10:55;23.93;;;18.20;;
21593;SDS011;10959;51.328;7.322;2023-11-21T08:13:22;21.53;;;16.37;;
21593;SDS011;10959;51.328;7.322;2023-11-21T08:15:49;23.00;;;17.17;;
21593;SDS011;10959;51.328;7.322;2023-11-21T08:18:15;21.27;;;16.70;;
21593;SDS011;10959;51.328;7.322;2023-11-21T08:20:42;20.23;;;16.10;;
21593;SDS011;10959;51.328;7.322;2023-11-21T08:23:14;25.00;;;17.20;;
21593;SDS011;10959;51.328;7.322;2023-11-21T08:25:41;26.57;;;17.57;;
21593;SDS011;10959;51.328;7.322;2023-11-21T08:28:08;21.37;;;17.27;;
21593;SDS011;10959;51.328;7.322;2023-11-21T08:30:35;22.07;;;17.40;;
21593;SDS011;10959;51.328;7.322;2023-11-21T08:33:01;25.00;;;17.93;;
21593;SDS011;10959;51.328;7.322;2023-11-21T08:35:28;27.50;;;17.67;;
21593;SDS011;10959;51.328;7.322;2023-11-21T08:37:55;26.43;;;17.13;;
21593;SDS011;10959;51.328;7.322;2023-11-21T08:40:23;28.73;;;18.23;;
21593;SDS011;10959;51.328;7.322;2023-11-21T08:42:50;25.13;;;17.07;;
21593;SDS011;10959;51.328;7.322;2023-11-21T08:45:17;27.50;;;18.57;;
21593;SDS011;10959;51.328;7.322;2023-11-21T08:47:44;24.83;;;18.30;;
21593;SDS011;10959;51.328;7.322;2023-11-21T08:50:11;35.87;;;22.83;;
21593;SDS011;10959;51.328;7.322;2023-11-21T08:52:38;35.33;;;22.17;;
21593;SDS011;10959;51.328;7.322;2023-11-21T08:55:05;33.13;;;22.47;;
21593;SDS011;10959;51.328;7.322;2023-11-21T08:57:35;39.57;;;24.43;;
21593;SDS011;10959;51.328;7.322;2023-11-21T09:00:01;37.27;;;24.23;;
21593;SDS011;10959;51.328;7.322;2023-11-21T09:02:30;38.73;;;24.13;;
21593;SDS011;10959;51.328;7.322;2023-11-21T09:04:56;38.60;;;25.27;;
21593;SDS011;10959;51.328;7.322;2023-11-21T09:07:24;41.53;;;24.27;;
21593;SDS011;10959;51.328;7.322;2023-11-21T09:09:50;44.43;;;27.33;;
21593;SDS011;10959;51.328;7.322;2023-11-21T09:12:17;41.13;;;26.77;;
21593;SDS011;10959;51.328;7.322;2023-11-21T09:14:45;43.80;;;25.87;;
21593;SDS011;10959;51.328;7.322;2023-11-21T09:17:12;47.13;;;27.53;;
21593;SDS011;10959;51.328;7.322;2023-11-21T09:19:39;51.73;;;29.10;;
21593;SDS011;10959;51.328;7.322;2023-11-21T09:22:06;50.30;;;28.90;;
21593;SDS011;10959;51.328;7.322;2023-11-21T09:24:33;47.10;;;26.80;;
21593;SDS011;10959;51.328;7.322;2023-11-21T09:26:59;48.13;;;28.37;;
21593;SDS011;10959;51.328;7.322;2023-11-21T09:29:26;46.37;;;29.57;;
21593;SDS011;10959;51.328;7.322;2023-11-21T09:31:55;44.60;;;27.00;;
21593;SDS011;10959;51.328;7.322;2023-11-21T09:34:24;51.00;;;29.53;;
21593;SDS011;10959;51.328;7.322;2023-11-21T09:36:50;44.60;;;27.50;;
21593;SDS011;10959;51.328;7.322;2023-11-21T09:39:18;50.87;;;28.33;;
21593;SDS011;10959;51.328;7.322;2023-11-21T09:41:46;44.93;;;25.87;;
21593;SDS011;10959;51.328;7.322;2023-11-21T09:44:17;43.37;;;24.57;;
21593;SDS011;10959;51.328;7.322;2023-11-21T09:46:44;40.03;;;23.93;;
21593;SDS011;10959;51.328;7.322;2023-11-21T09:49:15;46.70;;;25.60;;
21593;SDS011;10959;51.328;7.322;2023-11-21T09:51:50;42.90;;;27.87;;
21593;SDS011;10959;51.328;7.322;2023-11-21T09:54:21;40.73;;;25.40;;
21593;SDS011;10959;51.328;7.322;2023-11-21T09:56:48;51.73;;;26.70;;
21593;SDS011;10959;51.328;7.322;2023-11-21T09:59:16;40.07;;;24.57;;
21593;SDS011;10959;51.328;7.322;2023-11-21T10:01:42;42.30;;;26.53;;
21593;SDS011;10959;51.328;7.322;2023-11-21T10:04:09;54.87;;;26.53;;
21593;SDS011;10959;51.328;7.322;2023-11-21T10:06:39;45.37;;;27.33;;
21593;SDS011;10959;51.328;7.322;2023-11-21T10:09:06;43.80;;;26.33;;
21593;SDS011;10959;51.328;7.322;2023-11-21T10:11:37;46.87;;;25.80;;
21593;SDS011;10959;51.328;7.322;2023-11-21T10:14:06;42.97;;;24.77;;
21593;SDS011;10959;51.328;7.322;2023-11-21T10:16:35;42.33;;;25.60;;
21593;SDS011;10959;51.328;7.322;2023-11-21T10:19:02;37.70;;;23.53;;
21593;SDS011;10959;51.328;7.322;2023-11-21T10:21:31;41.70;;;23.10;;
21593;SDS011;10959;51.328;7.322;2023-11-21T10:23:59;49.83;;;25.67;;
21593;SDS011;10959;51.328;7.322;2023-11-21T10:26:26;38.43;;;22.57;;
21593;SDS011;10959;51.328;7.322;2023-11-21T10:28:57;33.87;;;21.10;;
21593;SDS011;10959;51.328;7.322;2023-11-21T10:31:23;36.47;;;20.87;;
21593;SDS011;10959;51.328;7.322;2023-11-21T10:33:50;34.57;;;21.70;;
21593;SDS011;10959;51.328;7.322;2023-11-21T10:36:24;29.77;;;18.67;;
21593;SDS011;10959;51.328;7.322;2023-11-21T10:38:52;35.47;;;21.67;;
21593;SDS011;10959;51.328;7.322;2023-11-21T10:41:21;38.83;;;22.13;;
21593;SDS011;10959;51.328;7.322;2023-11-21T10:43:47;39.57;;;22.03;;
21593;SDS011;10959;51.328;7.322;2023-11-21T10:46:14;31.40;;;18.33;;
21593;SDS011;10959;51.328;7.322;2023-11-21T10:48:41;31.23;;;17.57;;
21593;SDS011;10959;51.328;7.322;2023-11-21T10:51:08;35.30;;;19.37;;
21593;SDS011;10959;51.328;7.322;2023-11-21T10:53:38;37.00;;;20.03;;
21593;SDS011;10959;51.328;7.322;2023-11-21T10:56:06;28.50;;;16.53;;
21593;SDS011;10959;51.328;7.322;2023-11-21T10:58:37;28.70;;;15.83;;
21593;SDS011;10959;51.328;7.322;2023-11-21T11:01:06;33.80;;;19.03;;
21593;SDS011;10959;51.328;7.322;2023-11-21T11:03:33;32.60;;;19.57;;
21593;SDS011;10959;51.328;7.322;2023-11-21T11:06:02;32.53;;;19.33;;
21593;SDS011;10959;51.328;7.322;2023-11-21T11:08:32;31.93;;;18.50;;
21593;SDS011;10959;51.328;7.322;2023-11-21T11:11:01;28.43;;;17.47;;
21593;SDS011;10959;51.328;7.322;2023-11-21T11:13:27;32.53;;;18.27;;
21593;SDS011;10959;51.328;7.322;2023-11-21T11:15:57;27.53;;;17.77;;
21593;SDS011;10959;51.328;7.322;2023-11-21T11:18:26;27.27;;;17.40;;
21593;SDS011;10959;51.328;7.322;2023-11-21T11:20:53;26.57;;;17.93;;
21593;SDS011;10959;51.328;7.322;2023-11-21T11:23:30;24.50;;;17.43;;
21593;SDS011;10959;51.328;7.322;2023-11-21T11:26:12;33.23;;;19.37;;
21593;SDS011;10959;51.328;7.322;2023-11-21T11:28:57;37.77;;;23.03;;
21593;SDS011;10959;51.328;7.322;2023-11-21T11:31:45;28.93;;;17.83;;
21593;SDS011;10959;51.328;7.322;2023-11-21T11:34:23;33.07;;;19.10;;
21593;SDS011;10959;51.328;7.322;2023-11-21T11:36:55;28.50;;;17.33;;
21593;SDS011;10959;51.328;7.322;2023-11-21T11:39:27;29.20;;;17.07;;
21593;SDS011;10959;51.328;7.322;2023-11-21T11:41:55;27.53;;;17.03;;
21593;SDS011;10959;51.328;7.322;2023-11-21T11:47:22;31.00;;;18.73;;
21593;SDS011;10959;51.328;7.322;2023-11-21T11:52:42;31.53;;;18.13;;
21593;SDS011;10959;51.328;7.322;2023-11-21T11:55:09;32.07;;;18.13;;
21593;SDS011;10959;51.328;7.322;2023-11-21T11:57:38;27.80;;;16.90;;
21593;SDS011;10959;51.328;7.322;2023-11-21T12:00:12;25.27;;;15.43;;
21593;SDS011;10959;51.328;7.322;2023-11-21T12:02:46;27.67;;;18.23;;
21593;SDS011;10959;51.328;7.322;2023-11-21T12:05:14;31.37;;;18.77;;
21593;SDS011;10959;51.328;7.322;2023-11-21T12:07:43;38.37;;;21.83;;
21593;SDS011;10959;51.328;7.322;2023-11-21T12:10:14;32.33;;;20.53;;
21593;SDS011;10959;51.328;7.322;2023-11-21T12:12:46;29.77;;;19.47;;
21593;SDS011;10959;51.328;7.322;2023-11-21T12:15:13;33.23;;;21.97;;
21593;SDS011;10959;51.328;7.322;2023-11-21T12:17:41;34.93;;;21.50;;
21593;SDS011;10959;51.328;7.322;2023-11-21T12:20:10;34.70;;;19.40;;
21593;SDS011;10959;51.328;7.322;2023-11-21T12:22:42;33.40;;;20.57;;
21593;SDS011;10959;51.328;7.322;2023-11-21T12:25:09;37.73;;;21.63;;
21593;SDS011;10959;51.328;7.322;2023-11-21T12:27:41;39.07;;;23.77;;
21593;SDS011;10959;51.328;7.322;2023-11-21T12:30:08;47.90;;;27.50;;
21593;SDS011;10959;51.328;7.322;2023-11-21T12:32:38;42.67;;;24.20;;
21593;SDS011;10959;51.328;7.322;2023-11-21T12:35:05;40.27;;;23.80;;
21593;SDS011;10959;51.328;7.322;2023-11-21T12:37:33;43.70;;;22.97;;
21593;SDS011;10959;51.328;7.322;2023-11-21T12:40:00;47.57;;;25.90;;
21593;SDS011;10959;51.328;7.322;2023-11-21T12:42:27;47.20;;;26.90;;
21593;SDS011;10959;51.328;7.322;2023-11-21T12:45:06;46.07;;;25.37;;
21593;SDS011;10959;51.328;7.322;2023-11-21T12:47:45;43.07;;;23.43;;
21593;SDS011;10959;51.328;7.322;2023-11-21T12:50:12;47.30;;;26.43;;
21593;SDS011;10959;51.328;7.322;2023-11-21T12:52:44;46.57;;;26.97;;
21593;SDS011;10959;51.328;7.322;2023-11-21T12:55:13;49.97;;;28.67;;
21593;SDS011;10959;51.328;7.322;2023-11-21T12:57:44;45.67;;;24.60;;
21593;SDS011;10959;51.328;7.322;2023-11-21T13:00:12;32.73;;;21.90;;
21593;SDS011;10959;51.328;7.322;2023-11-21T13:02:51;35.23;;;20.90;;
21593;SDS011;10959;51.328;7.322;2023-11-21T13:05:25;30.83;;;19.47;;
21593;SDS011;10959;51.328;7.322;2023-11-21T13:07:54;28.67;;;18.40;;
21593;SDS011;10959;51.328;7.322;2023-11-21T13:10:23;25.13;;;16.80;;
21593;SDS011;10959;51.328;7.322;2023-11-21T13:12:54;26.53;;;16.47;;
21593;SDS011;10959;51.328;7.322;2023-11-21T13:15:23;25.10;;;16.73;;
21593;SDS011;10959;51.328;7.322;2023-11-21T13:17:49;24.33;;;17.30;;
21593;SDS011;10959;51.328;7.322;2023-11-21T13:20:18;28.57;;;19.10;;
21593;SDS011;10959;51.328;7.322;2023-11-21T13:22:48;26.83;;;17.90;;
21593;SDS011;10959;51.328;7.322;2023-11-21T13:25:17;27.77;;;18.73;;
21593;SDS011;10959;51.328;7.322;2023-11-21T13:27:44;29.93;;;19.03;;
21593;SDS011;10959;51.328;7.322;2023-11-21T13:30:12;39.87;;;23.77;;
21593;SDS011;10959;51.328;7.322;2023-11-21T13:32:41;35.47;;;22.43;;
21593;SDS011;10959;51.328;7.322;2023-11-21T13:35:08;33.33;;;21.37;;
21593;SDS011;10959;51.328;7.322;2023-11-21T13:37:43;38.77;;;23.57;;
21593;SDS011;10959;51.328;7.322;2023-11-21T13:40:10;26.07;;;17.97;;
21593;SDS011;10959;51.328;7.322;2023-11-21T13:42:41;27.60;;;19.27;;
21593;SDS011;10959;51.328;7.322;2023-11-21T13:45:09;23.57;;;17.67;;
21593;SDS011;10959;51.328;7.322;2023-11-21T13:47:37;35.00;;;20.93;;
21593;SDS011;10959;51.328;7.322;2023-11-21T13:50:05;31.00;;;21.33;;
21593;SDS011;10959;51.328;7.322;2023-11-21T13:52:41;33.83;;;21.70;;
21593;SDS011;10959;51.328;7.322;2023-11-21T13:55:08;26.87;;;21.03;;
21593;SDS011;10959;51.328;7.322;2023-11-21T13:57:41;24.93;;;19.20;;
21593;SDS011;10959;51.328;7.322;2023-11-21T14:00:10;26.13;;;18.90;;
21593;SDS011;10959;51.328;7.322;2023-11-21T14:02:57;32.17;;;20.40;;
21593;SDS011;10959;51.328;7.322;2023-11-21T14:05:25;136.63;;;33.13;;
21593;SDS011;10959;51.328;7.322;2023-11-21T14:07:54;53.60;;;24.73;;
21593;SDS011;10959;51.328;7.322;2023-11-21T14:10:27;70.40;;;26.03;;
21593;SDS011;10959;51.328;7.322;2023-11-21T14:13:03;205.60;;;30.73;;
21593;SDS011;10959;51.328;7.322;2023-11-21T14:15:30;24.30;;;16.63;;
21593;SDS011;10959;51.328;7.322;2023-11-21T14:17:58;140.17;;;28.13;;
21593;SDS011;10959;51.328;7.322;2023-11-21T14:20:27;129.13;;;24.40;;
21593;SDS011;10959;51.328;7.322;2023-11-21T14:22:55;127.27;;;27.20;;
21593;SDS011;10959;51.328;7.322;2023-11-21T14:25:22;90.47;;;26.30;;
21593;SDS011;10959;51.328;7.322;2023-11-21T14:27:49;36.77;;;16.03;;
21593;SDS011;10959;51.328;7.322;2023-11-21T14:30:17;56.90;;;20.73;;